sensor_id;sensor_type;location;lat;lon;timestamp;temperature;humidity
1129;DHT22;553;51.038;7.216;2024-03-22T00:00:40;10.80;99.90
1129;DHT22;553;51.038;7.216;2024-03-22T00:03:05;10.80;99.90
1129;DHT22;553;51.038;7.216;2024-03-22T00:05:31;10.80;99.90
1129;DHT22;553;51.038;7.216;2024-03-22T00:07:57;10.70;99.90
1129;DHT22;553;51.038;7.216;2024-03-22T00:10:23;10.70;99.90
1129;DHT22;553;51.038;7.216;2024-03-22T00:12:49;10.70;99.90
1129;DHT22;553;51.038;7.216;2024-03-22T00:15:15;10.70;99.90
1129;DHT22;553;51.038;7.216;2024-03-22T00:17:43;10.70;99.90
1129;DHT22;553;51.038;7.216;2024-03-22T00:20:09;10.60;99.90
1129;DHT22;553;51.038;7.216;2024-03-22T00:22:35;10.70;99.90
1129;DHT22;553;51.038;7.216;2024-03-22T00:25:01;10.70;99.90
1129;DHT22;553;51.038;7.216;2024-03-22T00:27:26;10.70;99.90
1129;DHT22;553;51.038;7.216;2024-03-22T00:29:52;10.70;99.90
1129;DHT22;553;51.038;7.216;2024-03-22T00:32:18;10.70;99.90
1129;DHT22;553;51.038;7.216;2024-03-22T00:34:44;10.70;99.90
1129;DHT22;553;51.038;7.216;2024-03-22T00:37:10;10.70;99.90
1129;DHT22;553;51.038;7.216;2024-03-22T00:39:36;10.70;99.90
1129;DHT22;553;51.038;7.216;2024-03-22T00:42:03;10.70;99.90
1129;DHT22;553;51.038;7.216;2024-03-22T00:44:28;10.70;99.90
1129;DHT22;553;51.038;7.216;2024-03-22T00:46:54;10.70;99.90
1129;DHT22;553;51.038;7.216;2024-03-22T00:49:20;10.80;99.90
1129;DHT22;553;51.038;7.216;2024-03-22T00:51:46;10.80;99.90
1129;DHT22;553;51.038;7.216;2024-03-22T00:54:13;10.80;99.90
1129;DHT22;553;51.038;7.216;2024-03-22T00:56:39;10.90;99.90
1129;DHT22;553;51.038;7.216;2024-03-22T00:59:05;10.90;99.90
1129;DHT22;553;51.038;7.216;2024-03-22T01:01:30;10.80;99.90
1129;DHT22;553;51.038;7.216;2024-03-22T01:03:56;10.90;99.90
1129;DHT22;553;51.038;7.216;2024-03-22T01:06:22;10.90;99.90
1129;DHT22;553;51.038;7.216;2024-03-22T01:08:50;10.90;99.90
1129;DHT22;553;51.038;7.216;2024-03-22T01:11:17;11.00;99.90
1129;DHT22;553;51.038;7.216;2024-03-22T01:13:43;10.90;99.90
1129;DHT22;553;51.038;7.216;2024-03-22T01:16:09;10.90;99.90
1129;DHT22;553;51.038;7.216;2024-03-22T01:18:36;11.00;99.90
1129;DHT22;553;51.038;7.216;2024-03-22T01:21:03;11.00;99.90
1129;DHT22;553;51.038;7.216;2024-03-22T01:23:30;11.00;99.90
1129;DHT22;553;51.038;7.216;2024-03-22T01:25:56;10.90;99.90
1129;DHT22;553;51.038;7.216;2024-03-22T01:28:21;10.90;99.90
1129;DHT22;553;51.038;7.216;2024-03-22T01:30:47;10.90;99.90
1129;DHT22;553;51.038;7.216;2024-03-22T01:33:13;10.90;99.90
1129;DHT22;553;51.038;7.216;2024-03-22T01:35:39;11.00;99.90
1129;DHT22;553;51.038;7.216;2024-03-22T01:38:05;11.00;99.90
1129;DHT22;553;51.038;7.216;2024-03-22T01:40:30;10.80;99.90
1129;DHT22;553;51.038;7.216;2024-03-22T01:42:57;10.80;99.90
1129;DHT22;553;51.038;7.216;2024-03-22T01:45:24;10.80;99.90
1129;DHT22;553;51.038;7.216;2024-03-22T01:47:54;10.80;99.90
1129;DHT22;553;51.038;7.216;2024-03-22T01:50:21;10.80;99.90
1129;DHT22;553;51.038;7.216;2024-03-22T01:52:47;10.80;99.90
1129;DHT22;553;51.038;7.216;2024-03-22T01:55:13;10.90;99.90
1129;DHT22;553;51.038;7.216;2024-03-22T01:57:39;10.80;99.90
1129;DHT22;553;51.038;7.216;2024-03-22T02:00:09;10.80;99.90
1129;DHT22;553;51.038;7.216;2024-03-22T02:02:39;10.80;99.90
1129;DHT22;553;51.038;7.216;2024-03-22T02:05:15;10.90;99.90
1129;DHT22;553;51.038;7.216;2024-03-22T02:07:42;10.80;99.90
1129;DHT22;553;51.038;7.216;2024-03-22T02:10:09;10.80;99.90
1129;DHT22;553;51.038;7.216;2024-03-22T02:12:40;10.90;99.90
1129;DHT22;553;51.038;7.216;2024-03-22T02:15:07;10.90;99.90
1129;DHT22;553;51.038;7.216;2024-03-22T02:17:34;10.90;99.90
1129;DHT22;553;51.038;7.216;2024-03-22T02:20:00;10.90;99.90
1129;DHT22;553;51.038;7.216;2024-03-22T02:22:27;10.90;99.90
1129;DHT22;553;51.038;7.216;2024-03-22T02:24:53;10.80;99.90
1129;DHT22;553;51.038;7.216;2024-03-22T02:27:19;10.80;99.90
1129;DHT22;553;51.038;7.216;2024-03-22T02:29:45;10.90;99.90
1129;DHT22;553;51.038;7.216;2024-03-22T02:32:11;10.90;99.90
1129;DHT22;553;51.038;7.216;2024-03-22T02:34:36;10.90;99.90
1129;DHT22;553;51.038;7.216;2024-03-22T02:37:02;10.80;99.90
1129;DHT22;553;51.038;7.216;2024-03-22T02:39:28;10.80;99.90
1129;DHT22;553;51.038;7.216;2024-03-22T02:41:55;10.90;99.90
1129;DHT22;553;51.038;7.216;2024-03-22T02:44:21;10.90;99.90
1129;DHT22;553;51.038;7.216;2024-03-22T02:46:47;10.90;99.90
1129;DHT22;553;51.038;7.216;2024-03-22T02:49:13;10.90;99.90
1129;DHT22;553;51.038;7.216;2024-03-22T02:51:39;10.90;99.90
1129;DHT22;553;51.038;7.216;2024-03-22T02:54:05;10.90;99.90
1129;DHT22;553;51.038;7.216;2024-03-22T02:56:31;10.90;99.90
1129;DHT22;553;51.038;7.216;2024-03-22T02:58:57;10.80;99.90
1129;DHT22;553;51.038;7.216;2024-03-22T03:01:23;10.80;99.90
1129;DHT22;553;51.038;7.216;2024-03-22T03:03:48;10.70;99.90
1129;DHT22;553;51.038;7.216;2024-03-22T03:06:14;10.80;99.90
1129;DHT22;553;51.038;7.216;2024-03-22T03:08:42;10.80;99.90
1129;DHT22;553;51.038;7.216;2024-03-22T03:11:08;10.80;99.90
1129;DHT22;553;51.038;7.216;2024-03-22T03:13:33;10.80;99.90
1129;DHT22;553;51.038;7.216;2024-03-22T03:15:59;10.80;99.90
1129;DHT22;553;51.038;7.216;2024-03-22T03:18:25;10.90;99.90
1129;DHT22;553;51.038;7.216;2024-03-22T03:20:51;10.80;99.90
1129;DHT22;553;51.038;7.216;2024-03-22T03:23:17;10.90;99.90
1129;DHT22;553;51.038;7.216;2024-03-22T03:25:42;10.90;99.90
1129;DHT22;553;51.038;7.216;2024-03-22T03:28:08;10.90;99.90
1129;DHT22;553;51.038;7.216;2024-03-22T03:30:34;10.90;99.90
1129;DHT22;553;51.038;7.216;2024-03-22T03:33:00;11.00;99.90
1129;DHT22;553;51.038;7.216;2024-03-22T03:35:26;10.90;99.90
1129;DHT22;553;51.038;7.216;2024-03-22T03:37:53;11.00;99.90
1129;DHT22;553;51.038;7.216;2024-03-22T03:40:18;11.00;99.90
1129;DHT22;553;51.038;7.216;2024-03-22T03:42:44;11.00;99.90
1129;DHT22;553;51.038;7.216;2024-03-22T03:45:10;10.90;99.90
1129;DHT22;553;51.038;7.216;2024-03-22T03:47:37;10.90;99.90
1129;DHT22;553;51.038;7.216;2024-03-22T03:50:03;10.90;99.90
1129;DHT22;553;51.038;7.216;2024-03-22T03:52:29;10.90;99.90
1129;DHT22;553;51.038;7.216;2024-03-22T03:54:54;10.80;99.90
1129;DHT22;553;51.038;7.216;2024-03-22T03:57:20;10.80;99.90
1129;DHT22;553;51.038;7.216;2024-03-22T03:59:46;10.90;99.90
1129;DHT22;553;51.038;7.216;2024-03-22T04:02:12;10.80;99.90
1129;DHT22;553;51.038;7.216;2024-03-22T04:04:38;10.80;99.90
1129;DHT22;553;51.038;7.216;2024-03-22T04:07:04;10.80;99.90
1129;DHT22;553;51.038;7.216;2024-03-22T04:09:30;10.70;99.90
1129;DHT22;553;51.038;7.216;2024-03-22T04:11:57;10.70;99.90
1129;DHT22;553;51.038;7.216;2024-03-22T04:14:27;10.80;99.90
1129;DHT22;553;51.038;7.216;2024-03-22T04:16:53;10.80;99.90
1129;DHT22;553;51.038;7.216;2024-03-22T04:19:22;10.80;99.90
1129;DHT22;553;51.038;7.216;2024-03-22T04:21:49;10.70;99.90
1129;DHT22;553;51.038;7.216;2024-03-22T04:24:15;10.80;99.90
1129;DHT22;553;51.038;7.216;2024-03-22T04:26:41;10.70;99.90
1129;DHT22;553;51.038;7.216;2024-03-22T04:29:07;10.70;99.90
1129;DHT22;553;51.038;7.216;2024-03-22T04:31:32;10.70;99.90
1129;DHT22;553;51.038;7.216;2024-03-22T04:33:58;10.80;99.90
1129;DHT22;553;51.038;7.216;2024-03-22T04:36:24;10.70;99.90
1129;DHT22;553;51.038;7.216;2024-03-22T04:38:50;10.70;99.90
1129;DHT22;553;51.038;7.216;2024-03-22T04:41:15;10.70;99.90
1129;DHT22;553;51.038;7.216;2024-03-22T04:43:42;10.60;99.90
1129;DHT22;553;51.038;7.216;2024-03-22T04:46:08;10.50;99.90
1129;DHT22;553;51.038;7.216;2024-03-22T04:48:34;10.50;99.90
1129;DHT22;553;51.038;7.216;2024-03-22T04:51:00;10.50;99.90
1129;DHT22;553;51.038;7.216;2024-03-22T04:53:25;10.50;99.90
1129;DHT22;553;51.038;7.216;2024-03-22T04:55:52;10.50;99.90
1129;DHT22;553;51.038;7.216;2024-03-22T04:58:19;10.50;99.90
1129;DHT22;553;51.038;7.216;2024-03-22T05:00:46;10.50;99.90
1129;DHT22;553;51.038;7.216;2024-03-22T05:03:12;10.60;99.90
1129;DHT22;553;51.038;7.216;2024-03-22T05:05:39;10.60;99.90
1129;DHT22;553;51.038;7.216;2024-03-22T05:08:06;10.60;99.90
1129;DHT22;553;51.038;7.216;2024-03-22T05:10:32;10.60;99.90
1129;DHT22;553;51.038;7.216;2024-03-22T05:12:58;10.70;99.90
1129;DHT22;553;51.038;7.216;2024-03-22T05:15:24;10.60;99.90
1129;DHT22;553;51.038;7.216;2024-03-22T05:17:56;10.50;99.90
1129;DHT22;553;51.038;7.216;2024-03-22T05:20:22;10.50;99.90
1129;DHT22;553;51.038;7.216;2024-03-22T05:22:48;10.50;99.90
1129;DHT22;553;51.038;7.216;2024-03-22T05:25:14;10.60;99.90
1129;DHT22;553;51.038;7.216;2024-03-22T05:27:41;10.60;99.90
1129;DHT22;553;51.038;7.216;2024-03-22T05:30:08;10.60;99.90
1129;DHT22;553;51.038;7.216;2024-03-22T05:32:35;10.60;99.90
1129;DHT22;553;51.038;7.216;2024-03-22T05:35:01;10.60;99.90
1129;DHT22;553;51.038;7.216;2024-03-22T05:37:27;10.70;99.90
1129;DHT22;553;51.038;7.216;2024-03-22T05:39:52;10.70;99.90
1129;DHT22;553;51.038;7.216;2024-03-22T05:42:18;10.80;99.90
1129;DHT22;553;51.038;7.216;2024-03-22T05:44:44;10.80;99.90
1129;DHT22;553;51.038;7.216;2024-03-22T05:47:10;10.80;99.90
1129;DHT22;553;51.038;7.216;2024-03-22T05:49:36;10.80;99.90
1129;DHT22;553;51.038;7.216;2024-03-22T05:52:02;10.80;99.90
1129;DHT22;553;51.038;7.216;2024-03-22T05:54:28;10.80;99.90
1129;DHT22;553;51.038;7.216;2024-03-22T05:56:55;10.80;99.90
1129;DHT22;553;51.038;7.216;2024-03-22T05:59:21;10.80;99.90
1129;DHT22;553;51.038;7.216;2024-03-22T06:01:47;10.80;99.90
1129;DHT22;553;51.038;7.216;2024-03-22T06:04:13;10.90;99.90
1129;DHT22;553;51.038;7.216;2024-03-22T06:06:39;10.90;99.90
1129;DHT22;553;51.038;7.216;2024-03-22T06:09:05;11.00;99.90
1129;DHT22;553;51.038;7.216;2024-03-22T06:11:35;11.00;99.90
1129;DHT22;553;51.038;7.216;2024-03-22T06:14:01;11.00;99.90
1129;DHT22;553;51.038;7.216;2024-03-22T06:16:27;11.10;99.90
1129;DHT22;553;51.038;7.216;2024-03-22T06:18:53;11.20;99.90
1129;DHT22;553;51.038;7.216;2024-03-22T06:21:19;11.30;99.90
1129;DHT22;553;51.038;7.216;2024-03-22T06:23:50;11.40;99.90
1129;DHT22;553;51.038;7.216;2024-03-22T06:26:17;11.50;99.90
1129;DHT22;553;51.038;7.216;2024-03-22T06:28:43;11.50;99.90
1129;DHT22;553;51.038;7.216;2024-03-22T06:31:09;11.60;99.90
1129;DHT22;553;51.038;7.216;2024-03-22T06:33:35;11.70;99.90
1129;DHT22;553;51.038;7.216;2024-03-22T06:36:01;11.70;99.90
1129;DHT22;553;51.038;7.216;2024-03-22T06:38:29;11.80;99.90
1129;DHT22;553;51.038;7.216;2024-03-22T06:40:55;11.80;99.90
1129;DHT22;553;51.038;7.216;2024-03-22T06:43:20;11.80;99.90
1129;DHT22;553;51.038;7.216;2024-03-22T06:45:46;11.80;99.90
1129;DHT22;553;51.038;7.216;2024-03-22T06:48:13;11.90;99.90
1129;DHT22;553;51.038;7.216;2024-03-22T06:50:41;11.90;99.90
1129;DHT22;553;51.038;7.216;2024-03-22T06:53:07;11.90;99.90
1129;DHT22;553;51.038;7.216;2024-03-22T06:55:33;11.90;99.90
1129;DHT22;553;51.038;7.216;2024-03-22T06:57:59;11.90;99.90
1129;DHT22;553;51.038;7.216;2024-03-22T07:00:25;12.00;99.90
1129;DHT22;553;51.038;7.216;2024-03-22T07:02:50;12.10;99.90
1129;DHT22;553;51.038;7.216;2024-03-22T07:05:17;12.10;99.90
1129;DHT22;553;51.038;7.216;2024-03-22T07:07:42;12.00;99.90
1129;DHT22;553;51.038;7.216;2024-03-22T07:10:09;12.00;99.90
1129;DHT22;553;51.038;7.216;2024-03-22T07:12:35;12.00;99.90
1129;DHT22;553;51.038;7.216;2024-03-22T07:15:01;12.10;99.90
1129;DHT22;553;51.038;7.216;2024-03-22T07:17:28;12.10;99.90
1129;DHT22;553;51.038;7.216;2024-03-22T07:19:54;12.10;99.90
1129;DHT22;553;51.038;7.216;2024-03-22T07:22:22;12.10;99.90
1129;DHT22;553;51.038;7.216;2024-03-22T07:24:48;12.20;99.90
1129;DHT22;553;51.038;7.216;2024-03-22T07:27:15;12.20;99.90
1129;DHT22;553;51.038;7.216;2024-03-22T07:29:41;12.20;99.90
1129;DHT22;553;51.038;7.216;2024-03-22T07:32:07;12.30;99.90
1129;DHT22;553;51.038;7.216;2024-03-22T07:34:33;12.40;99.90
1129;DHT22;553;51.038;7.216;2024-03-22T07:36:59;12.50;99.90
1129;DHT22;553;51.038;7.216;2024-03-22T07:39:25;12.60;99.90
1129;DHT22;553;51.038;7.216;2024-03-22T07:41:51;12.70;99.90
1129;DHT22;553;51.038;7.216;2024-03-22T07:44:17;12.90;99.90
1129;DHT22;553;51.038;7.216;2024-03-22T07:46:46;12.90;99.90
1129;DHT22;553;51.038;7.216;2024-03-22T07:49:12;13.10;99.90
1129;DHT22;553;51.038;7.216;2024-03-22T07:51:38;13.20;99.90
1129;DHT22;553;51.038;7.216;2024-03-22T07:54:05;13.30;99.90
1129;DHT22;553;51.038;7.216;2024-03-22T07:56:31;13.40;99.90
1129;DHT22;553;51.038;7.216;2024-03-22T07:58:57;13.50;99.90
1129;DHT22;553;51.038;7.216;2024-03-22T08:01:23;13.60;99.90
1129;DHT22;553;51.038;7.216;2024-03-22T08:03:51;13.70;99.90
1129;DHT22;553;51.038;7.216;2024-03-22T08:06:17;13.80;99.90
1129;DHT22;553;51.038;7.216;2024-03-22T08:08:43;14.00;99.90
1129;DHT22;553;51.038;7.216;2024-03-22T08:11:09;14.30;99.90
1129;DHT22;553;51.038;7.216;2024-03-22T08:13:35;14.50;99.90
1129;DHT22;553;51.038;7.216;2024-03-22T08:16:01;14.60;99.90
1129;DHT22;553;51.038;7.216;2024-03-22T08:18:27;14.80;99.90
1129;DHT22;553;51.038;7.216;2024-03-22T08:20:53;14.80;99.90
1129;DHT22;553;51.038;7.216;2024-03-22T08:23:18;14.90;99.90
1129;DHT22;553;51.038;7.216;2024-03-22T08:25:46;14.90;99.90
1129;DHT22;553;51.038;7.216;2024-03-22T08:28:12;15.00;99.90
1129;DHT22;553;51.038;7.216;2024-03-22T08:30:44;14.90;99.90
1129;DHT22;553;51.038;7.216;2024-03-22T08:33:10;14.90;99.90
1129;DHT22;553;51.038;7.216;2024-03-22T08:35:39;15.10;99.90
1129;DHT22;553;51.038;7.216;2024-03-22T08:38:05;15.30;99.90
1129;DHT22;553;51.038;7.216;2024-03-22T08:40:38;15.60;99.90
1129;DHT22;553;51.038;7.216;2024-03-22T08:43:05;15.80;99.60
1129;DHT22;553;51.038;7.216;2024-03-22T08:45:33;15.70;99.20
1129;DHT22;553;51.038;7.216;2024-03-22T08:47:59;15.80;99.40
1129;DHT22;553;51.038;7.216;2024-03-22T08:50:25;15.80;98.50
1129;DHT22;553;51.038;7.216;2024-03-22T08:52:51;15.90;98.70
1129;DHT22;553;51.038;7.216;2024-03-22T08:55:17;15.90;98.40
1129;DHT22;553;51.038;7.216;2024-03-22T08:57:43;15.90;98.60
1129;DHT22;553;51.038;7.216;2024-03-22T09:00:09;16.10;97.80
1129;DHT22;553;51.038;7.216;2024-03-22T09:02:36;16.00;97.50
1129;DHT22;553;51.038;7.216;2024-03-22T09:05:04;15.90;97.50
1129;DHT22;553;51.038;7.216;2024-03-22T09:07:30;15.70;97.90
1129;DHT22;553;51.038;7.216;2024-03-22T09:09:56;15.40;98.60
1129;DHT22;553;51.038;7.216;2024-03-22T09:12:22;15.30;98.90
1129;DHT22;553;51.038;7.216;2024-03-22T09:14:47;15.30;99.60
1129;DHT22;553;51.038;7.216;2024-03-22T09:17:13;15.30;99.20
1129;DHT22;553;51.038;7.216;2024-03-22T09:19:39;15.20;99.20
1129;DHT22;553;51.038;7.216;2024-03-22T09:22:05;15.30;99.30
1129;DHT22;553;51.038;7.216;2024-03-22T09:24:31;15.30;99.30
1129;DHT22;553;51.038;7.216;2024-03-22T09:26:57;15.40;99.00
1129;DHT22;553;51.038;7.216;2024-03-22T09:29:24;15.40;97.80
1129;DHT22;553;51.038;7.216;2024-03-22T09:31:50;15.60;97.80
1129;DHT22;553;51.038;7.216;2024-03-22T09:34:18;15.60;96.90
1129;DHT22;553;51.038;7.216;2024-03-22T09:36:45;15.70;96.80
1129;DHT22;553;51.038;7.216;2024-03-22T09:39:11;15.70;96.30
1129;DHT22;553;51.038;7.216;2024-03-22T09:41:42;15.70;95.40
1129;DHT22;553;51.038;7.216;2024-03-22T09:44:14;15.70;96.30
1129;DHT22;553;51.038;7.216;2024-03-22T09:46:44;15.80;95.90
1129;DHT22;553;51.038;7.216;2024-03-22T09:49:12;16.00;95.40
1129;DHT22;553;51.038;7.216;2024-03-22T09:51:39;16.10;94.00
1129;DHT22;553;51.038;7.216;2024-03-22T09:54:05;16.10;93.20
1129;DHT22;553;51.038;7.216;2024-03-22T09:56:31;16.20;93.00
1129;DHT22;553;51.038;7.216;2024-03-22T09:58:58;16.20;93.40
1129;DHT22;553;51.038;7.216;2024-03-22T10:01:24;16.30;93.40
1129;DHT22;553;51.038;7.216;2024-03-22T10:03:54;16.30;93.20
1129;DHT22;553;51.038;7.216;2024-03-22T10:06:20;16.30;92.50
1129;DHT22;553;51.038;7.216;2024-03-22T10:08:46;16.20;93.10
1129;DHT22;553;51.038;7.216;2024-03-22T10:11:12;16.10;92.80
1129;DHT22;553;51.038;7.216;2024-03-22T10:13:38;16.10;93.30
1129;DHT22;553;51.038;7.216;2024-03-22T10:16:05;16.00;92.90
1129;DHT22;553;51.038;7.216;2024-03-22T10:18:34;15.90;92.80
1129;DHT22;553;51.038;7.216;2024-03-22T10:21:04;15.90;93.10
1129;DHT22;553;51.038;7.216;2024-03-22T10:23:31;16.00;92.60
1129;DHT22;553;51.038;7.216;2024-03-22T10:25:58;16.00;92.50
1129;DHT22;553;51.038;7.216;2024-03-22T10:28:25;16.00;92.50
1129;DHT22;553;51.038;7.216;2024-03-22T10:30:51;16.10;93.10
1129;DHT22;553;51.038;7.216;2024-03-22T10:33:20;16.40;91.90
1129;DHT22;553;51.038;7.216;2024-03-22T10:35:54;16.40;90.90
1129;DHT22;553;51.038;7.216;2024-03-22T10:38:21;16.20;91.40
1129;DHT22;553;51.038;7.216;2024-03-22T10:40:47;16.20;91.80
1129;DHT22;553;51.038;7.216;2024-03-22T10:43:17;16.20;92.40
1129;DHT22;553;51.038;7.216;2024-03-22T10:45:43;16.30;92.00
1129;DHT22;553;51.038;7.216;2024-03-22T10:48:16;16.20;92.80
1129;DHT22;553;51.038;7.216;2024-03-22T10:50:42;16.30;91.80
1129;DHT22;553;51.038;7.216;2024-03-22T10:53:19;16.30;91.80
1129;DHT22;553;51.038;7.216;2024-03-22T10:55:47;16.20;92.20
1129;DHT22;553;51.038;7.216;2024-03-22T10:58:16;16.10;92.20
1129;DHT22;553;51.038;7.216;2024-03-22T11:00:42;16.00;93.40
1129;DHT22;553;51.038;7.216;2024-03-22T11:03:13;16.00;93.10
1129;DHT22;553;51.038;7.216;2024-03-22T11:05:49;16.00;93.00
1129;DHT22;553;51.038;7.216;2024-03-22T11:08:29;16.00;92.80
1129;DHT22;553;51.038;7.216;2024-03-22T11:11:09;16.10;92.40
1129;DHT22;553;51.038;7.216;2024-03-22T11:13:39;16.30;92.30
1129;DHT22;553;51.038;7.216;2024-03-22T11:16:05;16.10;92.00
1129;DHT22;553;51.038;7.216;2024-03-22T11:18:33;16.00;92.00
1129;DHT22;553;51.038;7.216;2024-03-22T11:20:59;16.00;92.30
1129;DHT22;553;51.038;7.216;2024-03-22T11:23:25;16.00;92.40
1129;DHT22;553;51.038;7.216;2024-03-22T11:25:51;16.00;92.10
1129;DHT22;553;51.038;7.216;2024-03-22T11:28:17;16.00;92.20
1129;DHT22;553;51.038;7.216;2024-03-22T11:30:43;16.00;92.10
1129;DHT22;553;51.038;7.216;2024-03-22T11:33:10;15.90;92.40
1129;DHT22;553;51.038;7.216;2024-03-22T11:35:36;15.90;92.80
1129;DHT22;553;51.038;7.216;2024-03-22T11:38:02;15.90;92.50
1129;DHT22;553;51.038;7.216;2024-03-22T11:40:30;15.90;93.30
1129;DHT22;553;51.038;7.216;2024-03-22T11:42:57;15.90;93.60
1129;DHT22;553;51.038;7.216;2024-03-22T11:45:24;16.00;93.70
1129;DHT22;553;51.038;7.216;2024-03-22T11:47:51;16.00;93.20
1129;DHT22;553;51.038;7.216;2024-03-22T11:50:18;15.90;93.60
1129;DHT22;553;51.038;7.216;2024-03-22T11:52:44;16.10;93.80
1129;DHT22;553;51.038;7.216;2024-03-22T11:55:13;16.10;92.30
1129;DHT22;553;51.038;7.216;2024-03-22T11:57:40;16.00;92.50
1129;DHT22;553;51.038;7.216;2024-03-22T12:00:07;16.10;92.40
1129;DHT22;553;51.038;7.216;2024-03-22T12:02:40;16.20;91.80
1129;DHT22;553;51.038;7.216;2024-03-22T12:05:07;16.30;92.20
1129;DHT22;553;51.038;7.216;2024-03-22T12:07:34;16.50;92.60
1129;DHT22;553;51.038;7.216;2024-03-22T12:09:59;16.80;93.40
1129;DHT22;553;51.038;7.216;2024-03-22T12:12:25;17.00;91.10
1129;DHT22;553;51.038;7.216;2024-03-22T12:14:52;17.10;90.00
1129;DHT22;553;51.038;7.216;2024-03-22T12:17:18;16.90;90.20
1129;DHT22;553;51.038;7.216;2024-03-22T12:19:44;16.80;89.90
1129;DHT22;553;51.038;7.216;2024-03-22T12:22:10;16.70;90.40
1129;DHT22;553;51.038;7.216;2024-03-22T12:24:36;16.80;89.90
1129;DHT22;553;51.038;7.216;2024-03-22T12:27:02;16.90;87.70
1129;DHT22;553;51.038;7.216;2024-03-22T12:29:28;17.00;87.00
1129;DHT22;553;51.038;7.216;2024-03-22T12:31:54;17.00;87.40
1129;DHT22;553;51.038;7.216;2024-03-22T12:34:20;16.80;87.50
1129;DHT22;553;51.038;7.216;2024-03-22T12:36:46;16.70;88.20
1129;DHT22;553;51.038;7.216;2024-03-22T12:39:12;16.50;88.70
1129;DHT22;553;51.038;7.216;2024-03-22T12:41:38;16.50;89.40
1129;DHT22;553;51.038;7.216;2024-03-22T12:44:04;16.40;89.70
1129;DHT22;553;51.038;7.216;2024-03-22T12:46:30;16.40;89.60
1129;DHT22;553;51.038;7.216;2024-03-22T12:48:56;16.60;89.30
1129;DHT22;553;51.038;7.216;2024-03-22T12:51:21;16.60;89.80
1129;DHT22;553;51.038;7.216;2024-03-22T12:53:47;16.70;89.00
1129;DHT22;553;51.038;7.216;2024-03-22T12:56:13;16.60;88.50
1129;DHT22;553;51.038;7.216;2024-03-22T12:58:39;16.70;89.30
1129;DHT22;553;51.038;7.216;2024-03-22T13:01:05;16.60;88.60
1129;DHT22;553;51.038;7.216;2024-03-22T13:03:34;16.50;90.10
1129;DHT22;553;51.038;7.216;2024-03-22T13:06:00;16.50;88.70
1129;DHT22;553;51.038;7.216;2024-03-22T13:08:26;16.40;88.10
1129;DHT22;553;51.038;7.216;2024-03-22T13:10:52;16.20;88.60
1129;DHT22;553;51.038;7.216;2024-03-22T13:13:18;16.30;89.90
1129;DHT22;553;51.038;7.216;2024-03-22T13:15:44;16.30;86.70
1129;DHT22;553;51.038;7.216;2024-03-22T13:18:11;16.30;86.50
1129;DHT22;553;51.038;7.216;2024-03-22T13:20:36;16.20;84.70
1129;DHT22;553;51.038;7.216;2024-03-22T13:23:03;16.10;85.60
1129;DHT22;553;51.038;7.216;2024-03-22T13:25:29;16.10;86.50
1129;DHT22;553;51.038;7.216;2024-03-22T13:27:55;16.00;87.60
1129;DHT22;553;51.038;7.216;2024-03-22T13:30:20;16.10;87.60
1129;DHT22;553;51.038;7.216;2024-03-22T13:32:47;16.10;87.90
1129;DHT22;553;51.038;7.216;2024-03-22T13:35:13;16.20;87.80
1129;DHT22;553;51.038;7.216;2024-03-22T13:37:41;16.30;88.60
1129;DHT22;553;51.038;7.216;2024-03-22T13:40:07;16.40;88.00
1129;DHT22;553;51.038;7.216;2024-03-22T13:42:34;16.50;89.10
1129;DHT22;553;51.038;7.216;2024-03-22T13:45:00;16.50;88.70
1129;DHT22;553;51.038;7.216;2024-03-22T13:47:26;16.60;89.00
1129;DHT22;553;51.038;7.216;2024-03-22T13:49:55;16.50;89.40
1129;DHT22;553;51.038;7.216;2024-03-22T13:52:21;16.60;88.80
1129;DHT22;553;51.038;7.216;2024-03-22T13:54:47;16.70;88.30
1129;DHT22;553;51.038;7.216;2024-03-22T13:57:13;16.70;87.10
1129;DHT22;553;51.038;7.216;2024-03-22T13:59:39;16.60;87.80
1129;DHT22;553;51.038;7.216;2024-03-22T14:02:07;16.60;87.50
1129;DHT22;553;51.038;7.216;2024-03-22T14:04:34;16.70;87.20
1129;DHT22;553;51.038;7.216;2024-03-22T14:07:00;16.60;86.80
1129;DHT22;553;51.038;7.216;2024-03-22T14:09:33;16.60;87.00
1129;DHT22;553;51.038;7.216;2024-03-22T14:12:00;16.50;87.50
1129;DHT22;553;51.038;7.216;2024-03-22T14:14:26;16.50;87.90
1129;DHT22;553;51.038;7.216;2024-03-22T14:16:52;16.50;87.10
1129;DHT22;553;51.038;7.216;2024-03-22T14:19:18;16.30;86.50
1129;DHT22;553;51.038;7.216;2024-03-22T14:21:45;16.30;87.80
1129;DHT22;553;51.038;7.216;2024-03-22T14:24:12;16.40;87.60
1129;DHT22;553;51.038;7.216;2024-03-22T14:26:38;16.50;86.70
1129;DHT22;553;51.038;7.216;2024-03-22T14:29:12;16.50;86.80
1129;DHT22;553;51.038;7.216;2024-03-22T14:31:38;16.60;87.60
1129;DHT22;553;51.038;7.216;2024-03-22T14:34:07;16.70;87.50
1129;DHT22;553;51.038;7.216;2024-03-22T14:36:33;16.60;87.60
1129;DHT22;553;51.038;7.216;2024-03-22T14:38:59;16.50;88.10
1129;DHT22;553;51.038;7.216;2024-03-22T14:41:25;16.60;88.30
1129;DHT22;553;51.038;7.216;2024-03-22T14:43:51;16.60;88.70
1129;DHT22;553;51.038;7.216;2024-03-22T14:46:17;16.40;88.70
1129;DHT22;553;51.038;7.216;2024-03-22T14:48:50;16.30;89.30
1129;DHT22;553;51.038;7.216;2024-03-22T14:51:16;16.20;90.30
1129;DHT22;553;51.038;7.216;2024-03-22T14:53:42;16.20;90.70
1129;DHT22;553;51.038;7.216;2024-03-22T14:56:07;15.90;91.60
1129;DHT22;553;51.038;7.216;2024-03-22T14:58:37;15.80;92.50
1129;DHT22;553;51.038;7.216;2024-03-22T15:01:04;15.80;92.80
1129;DHT22;553;51.038;7.216;2024-03-22T15:03:31;15.80;93.10
1129;DHT22;553;51.038;7.216;2024-03-22T15:05:58;16.10;92.50
1129;DHT22;553;51.038;7.216;2024-03-22T15:08:27;16.00;92.80
1129;DHT22;553;51.038;7.216;2024-03-22T15:10:54;15.80;93.50
1129;DHT22;553;51.038;7.216;2024-03-22T15:13:20;15.70;93.70
1129;DHT22;553;51.038;7.216;2024-03-22T15:15:57;15.60;94.60
1129;DHT22;553;51.038;7.216;2024-03-22T15:18:24;15.70;94.90
1129;DHT22;553;51.038;7.216;2024-03-22T15:20:50;15.70;94.20
1129;DHT22;553;51.038;7.216;2024-03-22T15:23:17;15.60;95.00
1129;DHT22;553;51.038;7.216;2024-03-22T15:25:44;15.70;95.40
1129;DHT22;553;51.038;7.216;2024-03-22T15:28:10;15.70;95.60
1129;DHT22;553;51.038;7.216;2024-03-22T15:30:37;15.80;95.60
1129;DHT22;553;51.038;7.216;2024-03-22T15:33:04;15.80;95.90
1129;DHT22;553;51.038;7.216;2024-03-22T15:35:31;15.80;96.30
1129;DHT22;553;51.038;7.216;2024-03-22T15:37:57;15.70;96.40
1129;DHT22;553;51.038;7.216;2024-03-22T15:40:23;15.40;96.90
1129;DHT22;553;51.038;7.216;2024-03-22T15:42:49;15.40;97.90
1129;DHT22;553;51.038;7.216;2024-03-22T15:45:15;15.50;97.60
1129;DHT22;553;51.038;7.216;2024-03-22T15:47:41;15.20;98.50
1129;DHT22;553;51.038;7.216;2024-03-22T15:50:08;15.20;98.90
1129;DHT22;553;51.038;7.216;2024-03-22T15:52:35;15.30;98.80
1129;DHT22;553;51.038;7.216;2024-03-22T15:55:01;15.20;99.10
1129;DHT22;553;51.038;7.216;2024-03-22T15:57:27;14.90;99.60
1129;DHT22;553;51.038;7.216;2024-03-22T15:59:53;14.80;99.90
1129;DHT22;553;51.038;7.216;2024-03-22T16:02:18;14.70;99.90
1129;DHT22;553;51.038;7.216;2024-03-22T16:04:44;14.80;99.90
1129;DHT22;553;51.038;7.216;2024-03-22T16:07:11;14.70;99.90
1129;DHT22;553;51.038;7.216;2024-03-22T16:09:37;14.80;99.90
1129;DHT22;553;51.038;7.216;2024-03-22T16:12:04;14.80;99.90